createdAt,value
2023-04-16T00:01:04.484Z,6.47
2023-04-16T00:03:31.419Z,6.43
2023-04-16T00:05:58.235Z,5.60
2023-04-16T00:08:25.026Z,6.25
2023-04-16T00:10:53.761Z,7.15
2023-04-16T00:13:20.906Z,6.45
2023-04-16T00:15:47.697Z,5.70
2023-04-16T00:18:14.598Z,7.60
2023-04-16T00:20:41.370Z,6.07
2023-04-16T00:23:08.111Z,6.32
2023-04-16T00:25:34.830Z,7.25
2023-04-16T00:28:01.586Z,7.32
2023-04-16T00:30:28.363Z,6.78
2023-04-16T00:32:55.122Z,6.90
2023-04-16T00:35:21.909Z,6.82
2023-04-16T00:37:48.714Z,9.45
2023-04-16T00:40:15.512Z,9.90
2023-04-16T00:42:42.226Z,7.00
2023-04-16T00:45:10.060Z,5.95
2023-04-16T00:47:36.931Z,8.75
2023-04-16T00:50:04.680Z,8.57
2023-04-16T00:52:35.143Z,8.98
2023-04-16T00:55:01.914Z,8.15
2023-04-16T00:57:28.737Z,8.75
2023-04-16T00:59:56.616Z,9.27
2023-04-16T01:02:23.793Z,10.70
2023-04-16T01:04:51.828Z,7.57
2023-04-16T01:07:18.601Z,9.43
2023-04-16T01:09:45.522Z,6.47
2023-04-16T01:12:12.274Z,5.50
2023-04-16T01:14:39.090Z,8.55
2023-04-16T01:17:06.038Z,7.60
2023-04-16T01:19:32.795Z,7.72
2023-04-16T01:21:59.628Z,8.35
2023-04-16T01:24:26.521Z,7.57
2023-04-16T01:26:53.518Z,6.07
2023-04-16T01:29:20.300Z,5.90
2023-04-16T01:31:47.177Z,7.07
2023-04-16T01:34:13.987Z,10.43
2023-04-16T01:36:40.697Z,9.68
2023-04-16T01:39:07.630Z,7.72
2023-04-16T01:41:34.593Z,6.80
2023-04-16T01:44:01.364Z,8.30
2023-04-16T01:46:31.158Z,9.05
2023-04-16T01:48:58.551Z,7.13
2023-04-16T01:51:25.409Z,7.82
2023-04-16T01:53:52.087Z,9.57
2023-04-16T01:56:18.855Z,8.10
2023-04-16T01:58:46.596Z,7.43
2023-04-16T02:01:14.096Z,5.18
2023-04-16T02:03:41.728Z,5.60
2023-04-16T02:06:08.810Z,6.18
2023-04-16T02:08:35.722Z,7.97
2023-04-16T02:11:02.507Z,6.95
2023-04-16T02:13:29.274Z,7.43
2023-04-16T02:15:56.145Z,6.05
2023-04-16T02:18:22.919Z,5.60
2023-04-16T02:20:50.022Z,7.45
2023-04-16T02:23:16.731Z,7.80
2023-04-16T02:25:46.035Z,5.85
2023-04-16T02:28:15.840Z,8.13
2023-04-16T02:30:43.238Z,6.15
2023-04-16T02:33:11.856Z,6.30
2023-04-16T02:35:39.551Z,5.88
2023-04-16T02:38:06.428Z,6.85
2023-04-16T02:40:33.531Z,5.95
2023-04-16T02:43:00.665Z,9.20
2023-04-16T02:45:28.020Z,8.07
2023-04-16T02:47:54.778Z,9.80
2023-04-16T02:50:21.604Z,7.57
2023-04-16T02:52:48.704Z,6.40
2023-04-16T02:55:15.607Z,7.15
2023-04-16T02:57:42.733Z,7.50
2023-04-16T03:00:10.157Z,6.43
2023-04-16T03:02:37.028Z,5.70
2023-04-16T03:05:04.535Z,5.90
2023-04-16T03:07:31.243Z,7.28
2023-04-16T03:09:58.049Z,6.43
2023-04-16T03:12:24.846Z,6.40
2023-04-16T03:14:52.817Z,5.10
2023-04-16T03:17:19.608Z,5.47
2023-04-16T03:19:46.420Z,4.80
2023-04-16T03:22:13.145Z,7.25
2023-04-16T03:24:39.942Z,8.30
2023-04-16T03:27:06.642Z,5.55
2023-04-16T03:29:33.394Z,5.28
2023-04-16T03:32:00.118Z,6.35
2023-04-16T03:34:27.059Z,6.55
2023-04-16T03:36:53.772Z,6.88
2023-04-16T03:39:20.703Z,6.18
2023-04-16T03:41:47.536Z,5.97
2023-04-16T03:44:14.266Z,4.80
2023-04-16T03:46:41.127Z,5.22
2023-04-16T03:49:08.636Z,8.00
2023-04-16T03:51:35.648Z,6.10
2023-04-16T03:54:02.425Z,6.80
2023-04-16T03:56:29.217Z,6.13
2023-04-16T03:58:56.059Z,7.63
2023-04-16T04:01:22.799Z,6.55
2023-04-16T04:03:49.862Z,6.13
2023-04-16T04:06:16.787Z,6.25
2023-04-16T04:08:43.626Z,6.10
2023-04-16T04:11:10.379Z,7.45
2023-04-16T04:13:37.077Z,8.43
2023-04-16T04:16:04.757Z,7.70
2023-04-16T04:18:32.061Z,5.70
2023-04-16T04:20:58.762Z,9.43
2023-04-16T04:23:25.493Z,8.80
2023-04-16T04:25:52.287Z,6.65
2023-04-16T04:28:19.045Z,8.63
2023-04-16T04:30:45.856Z,9.40
2023-04-16T04:33:12.595Z,10.80
2023-04-16T04:35:39.274Z,8.13
2023-04-16T04:38:06.151Z,7.03
2023-04-16T04:40:33.053Z,7.20
2023-04-16T04:42:59.784Z,8.05
2023-04-16T04:45:26.876Z,9.90
2023-04-16T04:47:54.030Z,5.65
2023-04-16T04:50:21.800Z,8.40
2023-04-16T04:52:48.514Z,7.20
2023-04-16T04:55:16.206Z,7.22
2023-04-16T04:57:43.007Z,7.32
2023-04-16T05:00:10.328Z,7.28
2023-04-16T05:02:37.500Z,7.00
2023-04-16T05:05:05.299Z,6.90
2023-04-16T05:07:32.360Z,6.82
2023-04-16T05:09:59.091Z,8.02
2023-04-16T05:12:25.966Z,8.27
2023-04-16T05:14:52.688Z,7.20
2023-04-16T05:17:19.466Z,7.30
2023-04-16T05:19:46.188Z,8.15
2023-04-16T05:22:13.190Z,7.93
2023-04-16T05:24:39.926Z,7.35
2023-04-16T05:27:06.650Z,7.22
2023-04-16T05:29:33.341Z,10.23
2023-04-16T05:32:00.142Z,7.93
2023-04-16T05:34:28.126Z,9.65
2023-04-16T05:36:54.890Z,8.88
2023-04-16T05:39:21.776Z,7.90
2023-04-16T05:41:48.623Z,7.05
2023-04-16T05:44:15.505Z,7.28
2023-04-16T05:46:42.316Z,5.43
2023-04-16T05:49:11.243Z,6.47
2023-04-16T05:51:38.175Z,6.57
2023-04-16T05:54:04.917Z,5.93
2023-04-16T05:56:31.602Z,5.75
2023-04-16T05:58:58.342Z,6.28
2023-04-16T06:01:25.688Z,10.32
2023-04-16T06:03:52.413Z,8.45
2023-04-16T06:06:19.182Z,8.52
2023-04-16T06:08:46.080Z,10.85
2023-04-16T06:11:12.919Z,7.57
2023-04-16T06:13:39.890Z,8.65
2023-04-16T06:16:06.899Z,9.45
2023-04-16T06:18:33.687Z,6.85
2023-04-16T06:21:00.444Z,6.20
2023-04-16T06:23:27.184Z,5.95
2023-04-16T06:25:54.462Z,6.55
2023-04-16T06:28:21.161Z,6.90
2023-04-16T06:30:48.190Z,6.35
2023-04-16T06:33:14.891Z,7.20
2023-04-16T06:35:41.739Z,6.43
2023-04-16T06:38:08.469Z,6.93
2023-04-16T06:40:37.140Z,7.40
2023-04-16T06:43:04.347Z,6.50
2023-04-16T06:45:31.239Z,5.97
2023-04-16T06:47:59.190Z,5.10
2023-04-16T06:50:27.037Z,4.95
2023-04-16T06:52:53.898Z,6.07
2023-04-16T06:55:20.920Z,4.88
2023-04-16T06:57:47.610Z,5.03
2023-04-16T07:00:14.536Z,5.80
2023-04-16T07:02:41.425Z,5.03
2023-04-16T07:05:09.154Z,4.57
2023-04-16T07:07:36.003Z,4.50
2023-04-16T07:10:03.099Z,3.58
2023-04-16T07:12:31.863Z,3.30
2023-04-16T07:14:58.594Z,3.75
2023-04-16T07:17:25.359Z,4.80
2023-04-16T07:19:52.343Z,3.65
2023-04-16T07:22:19.272Z,2.97
2023-04-16T07:24:46.043Z,3.25
2023-04-16T07:27:13.191Z,2.55
2023-04-16T07:29:40.044Z,3.42
2023-04-16T07:32:07.790Z,2.85
2023-04-16T07:34:34.548Z,3.33
2023-04-16T07:37:01.293Z,2.70
2023-04-16T07:39:28.020Z,2.80
2023-04-16T07:41:55.121Z,3.08
2023-04-16T07:44:21.899Z,2.05
2023-04-16T07:46:48.867Z,2.33
2023-04-16T07:49:15.715Z,2.30
2023-04-16T07:51:42.640Z,1.85
2023-04-16T07:54:10.252Z,2.47
2023-04-16T07:56:36.935Z,1.50
2023-04-16T07:59:21.141Z,1.35
2023-04-16T08:01:50.273Z,1.63
2023-04-16T08:04:23.329Z,1.42
2023-04-16T08:06:51.651Z,1.52
2023-04-16T08:09:20.245Z,1.85
2023-04-16T08:11:47.139Z,1.83
2023-04-16T08:14:13.909Z,1.70
2023-04-16T08:16:40.719Z,1.58
2023-04-16T08:19:07.618Z,1.55
2023-04-16T08:21:34.799Z,2.00
2023-04-16T08:24:01.562Z,1.45
2023-04-16T08:26:28.349Z,1.70
2023-04-16T08:28:55.108Z,1.85
2023-04-16T08:31:21.890Z,1.80
2023-04-16T08:33:48.692Z,1.70
2023-04-16T08:36:15.804Z,1.50
2023-04-16T08:38:42.607Z,1.65
2023-04-16T08:41:12.972Z,1.70
2023-04-16T08:43:44.804Z,1.33
2023-04-16T08:46:12.553Z,1.67
2023-04-16T08:48:42.397Z,1.60
2023-04-16T08:51:11.275Z,1.85
2023-04-16T08:53:53.390Z,2.05
2023-04-16T08:56:24.860Z,1.90
2023-04-16T08:58:53.972Z,1.70
2023-04-16T09:01:21.577Z,2.08
2023-04-16T09:03:49.431Z,1.50
2023-04-16T09:06:16.942Z,1.45
2023-04-16T09:08:48.279Z,1.50
2023-04-16T09:11:18.290Z,1.80
2023-04-16T09:13:46.402Z,1.40
2023-04-16T09:16:14.033Z,2.35
2023-04-16T09:18:41.481Z,1.70
2023-04-16T09:21:11.278Z,1.27
2023-04-16T09:23:39.081Z,1.50
2023-04-16T09:26:06.238Z,1.73
2023-04-16T09:28:40.796Z,1.80
2023-04-16T09:31:11.807Z,1.45
2023-04-16T09:33:38.785Z,2.03
2023-04-16T09:36:07.049Z,1.83
2023-04-16T09:38:51.100Z,1.60
2023-04-16T09:41:18.541Z,1.60
2023-04-16T09:43:57.922Z,1.60
2023-04-16T09:46:34.014Z,1.73
2023-04-16T09:49:13.543Z,1.80
2023-04-16T09:51:45.467Z,2.00
2023-04-16T09:54:12.539Z,1.75
2023-04-16T09:56:43.966Z,1.65
2023-04-16T09:59:24.344Z,1.52
2023-04-16T10:01:53.558Z,1.80
2023-04-16T10:04:51.545Z,1.90
2023-04-16T10:07:19.338Z,1.70
2023-04-16T10:09:48.626Z,1.10
2023-04-16T10:12:16.421Z,1.58
2023-04-16T10:14:43.375Z,1.30
2023-04-16T10:17:10.266Z,1.20
2023-04-16T10:19:37.574Z,1.35
2023-04-16T10:22:05.178Z,1.67
2023-04-16T10:24:39.818Z,1.80
2023-04-16T10:27:06.687Z,1.80
2023-04-16T10:29:34.633Z,1.33
2023-04-16T10:32:02.168Z,1.40
2023-04-16T10:34:29.361Z,1.40
2023-04-16T10:36:56.276Z,1.50
2023-04-16T10:39:25.800Z,1.75
2023-04-16T10:42:11.082Z,1.60
2023-04-16T10:44:38.275Z,1.70
2023-04-16T10:47:12.475Z,1.60
2023-04-16T10:49:39.590Z,1.52
2023-04-16T10:54:59.409Z,1.50
2023-04-16T10:57:29.897Z,2.17
2023-04-16T10:59:56.552Z,2.13
2023-04-16T11:02:29.151Z,1.83
2023-04-16T11:04:57.929Z,1.70
2023-04-16T11:07:35.331Z,1.80
2023-04-16T11:10:06.141Z,2.08
2023-04-16T11:12:38.211Z,1.95
2023-04-16T11:15:10.217Z,1.63
2023-04-16T11:17:38.965Z,1.70
2023-04-16T11:20:17.865Z,1.88
2023-04-16T11:22:47.463Z,2.00
2023-04-16T11:25:20.109Z,2.33
2023-04-16T11:27:46.803Z,1.85
2023-04-16T11:30:13.707Z,1.75
2023-04-16T11:32:40.844Z,2.42
2023-04-16T11:35:33.622Z,1.98
2023-04-16T11:38:00.514Z,1.60
2023-04-16T11:40:31.720Z,2.10
2023-04-16T11:43:03.350Z,2.00
2023-04-16T11:45:30.072Z,1.75
2023-04-16T11:47:58.023Z,1.67
2023-04-16T11:50:27.469Z,1.92
2023-04-16T11:53:03.681Z,2.10
2023-04-16T11:55:30.454Z,2.13
2023-04-16T11:57:57.144Z,2.17
2023-04-16T12:00:24.930Z,1.92
2023-04-16T12:02:53.915Z,1.90
2023-04-16T12:05:35.129Z,1.83
2023-04-16T12:08:04.248Z,1.98
2023-04-16T12:10:37.267Z,1.88
2023-04-16T12:13:12.884Z,2.28
2023-04-16T12:15:49.758Z,2.55
2023-04-16T12:18:17.246Z,1.80
2023-04-16T12:20:45.697Z,2.00
2023-04-16T12:23:26.921Z,2.10
2023-04-16T12:25:54.928Z,2.47
2023-04-16T12:28:33.113Z,1.90
2023-04-16T12:31:00.844Z,2.15
2023-04-16T12:33:27.681Z,2.08
2023-04-16T12:35:55.008Z,2.00
2023-04-16T12:38:24.265Z,1.90
2023-04-16T12:40:51.921Z,1.73
2023-04-16T12:43:19.909Z,1.95
2023-04-16T12:45:46.769Z,1.77
2023-04-16T12:48:13.659Z,1.80
2023-04-16T12:50:40.383Z,1.70
2023-04-16T12:53:09.337Z,1.50
2023-04-16T12:55:36.170Z,1.92
2023-04-16T12:58:03.088Z,1.67
2023-04-16T13:00:29.925Z,2.08
2023-04-16T13:02:56.735Z,1.80
2023-04-16T13:05:23.591Z,1.80
2023-04-16T13:07:50.402Z,2.10
2023-04-16T13:10:17.577Z,1.85
2023-04-16T13:12:44.342Z,1.60
2023-04-16T13:15:11.460Z,1.88
2023-04-16T13:17:38.303Z,2.20
2023-04-16T13:20:05.461Z,1.65
2023-04-16T13:22:32.523Z,1.90
2023-04-16T13:24:59.352Z,1.65
2023-04-16T13:27:26.361Z,1.63
2023-04-16T13:29:53.416Z,1.77
2023-04-16T13:32:20.504Z,1.88
2023-04-16T13:34:47.579Z,1.40
2023-04-16T13:37:14.365Z,1.90
2023-04-16T13:39:41.559Z,1.58
2023-04-16T13:42:08.433Z,1.70
2023-04-16T13:44:35.312Z,1.80
2023-04-16T13:47:02.129Z,1.70
2023-04-16T13:49:35.042Z,1.73
2023-04-16T13:52:02.500Z,1.60
2023-04-16T13:54:29.235Z,1.65
2023-04-16T13:56:56.192Z,1.63
2023-04-16T13:59:23.119Z,1.77
2023-04-16T14:01:50.020Z,1.88
2023-04-16T14:04:16.890Z,1.65
2023-04-16T14:06:43.636Z,2.38
2023-04-16T14:09:11.177Z,1.70
2023-04-16T14:11:38.214Z,2.30
2023-04-16T14:14:05.530Z,2.10
2023-04-16T14:16:32.513Z,2.13
2023-04-16T14:18:59.375Z,2.30
2023-04-16T14:21:27.156Z,1.83
2023-04-16T14:23:53.944Z,3.25
2023-04-16T14:26:21.239Z,2.20
2023-04-16T14:28:48.396Z,2.60
2023-04-16T14:31:15.094Z,2.00
2023-04-16T14:33:41.937Z,1.85
2023-04-16T14:36:08.985Z,2.17
2023-04-16T14:38:35.881Z,2.28
2023-04-16T14:41:02.979Z,2.40
2023-04-16T14:43:29.823Z,2.20
2023-04-16T14:45:58.288Z,2.00
2023-04-16T14:48:25.101Z,2.20
2023-04-16T14:50:51.895Z,2.67
2023-04-16T14:53:23.928Z,2.50
2023-04-16T14:55:52.171Z,2.58
2023-04-16T14:58:19.520Z,2.50
2023-04-16T15:00:46.223Z,2.20
2023-04-16T15:03:13.163Z,2.75
2023-04-16T15:05:39.946Z,3.50
2023-04-16T15:08:07.452Z,2.95
2023-04-16T15:13:15.751Z,3.33
2023-04-16T15:15:42.683Z,3.42
2023-04-16T15:18:09.613Z,3.75
2023-04-16T15:20:36.380Z,3.00
2023-04-16T15:23:03.297Z,2.50
2023-04-16T15:25:30.031Z,2.80
2023-04-16T15:27:56.733Z,3.28
2023-04-16T15:30:23.522Z,3.55
2023-04-16T15:32:50.377Z,2.92
2023-04-16T15:35:17.190Z,2.97
2023-04-16T15:37:44.273Z,2.65
2023-04-16T15:40:11.248Z,3.20
2023-04-16T15:42:38.078Z,2.92
2023-04-16T15:45:05.536Z,2.70
2023-04-16T15:47:32.436Z,2.50
2023-04-16T15:49:59.166Z,2.58
2023-04-16T15:52:26.096Z,3.15
2023-04-16T15:54:53.067Z,2.47
2023-04-16T15:57:20.337Z,3.35
2023-04-16T16:00:03.209Z,2.60
2023-04-16T16:02:32.679Z,3.88
2023-04-16T16:05:00.598Z,3.10
2023-04-16T16:07:27.563Z,4.20
2023-04-16T16:09:54.400Z,2.88
2023-04-16T16:12:21.948Z,3.33
2023-04-16T16:17:31.142Z,4.03
2023-04-16T16:19:59.429Z,5.00
2023-04-16T16:22:26.338Z,4.38
2023-04-16T16:25:00.069Z,5.57
2023-04-16T16:27:27.033Z,4.30
2023-04-16T16:29:53.833Z,4.82
2023-04-16T16:32:20.613Z,5.65
2023-04-16T16:34:47.318Z,7.07
2023-04-16T16:37:14.131Z,7.70
2023-04-16T16:39:40.984Z,8.48
2023-04-16T16:42:09.275Z,9.13
2023-04-16T16:44:36.778Z,7.43
2023-04-16T16:47:03.713Z,9.13
2023-04-16T16:49:30.591Z,10.55
2023-04-16T16:51:57.791Z,11.35
2023-04-16T16:54:24.546Z,10.88
2023-04-16T16:56:51.257Z,10.57
2023-04-16T16:59:18.022Z,9.80
2023-04-16T17:01:44.779Z,9.15
2023-04-16T17:04:11.574Z,12.98
2023-04-16T17:06:39.267Z,10.85
2023-04-16T17:09:07.226Z,10.60
2023-04-16T17:11:33.977Z,10.98
2023-04-16T17:14:00.914Z,12.10
2023-04-16T17:16:27.730Z,8.48
2023-04-16T17:18:54.646Z,10.45
2023-04-16T17:21:21.716Z,11.00
2023-04-16T17:23:48.489Z,10.13
2023-04-16T17:26:15.501Z,12.63
2023-04-16T17:28:42.179Z,11.60
2023-04-16T17:31:08.946Z,11.57
2023-04-16T17:33:35.935Z,12.85
2023-04-16T17:36:02.864Z,12.80
2023-04-16T17:38:29.667Z,13.85
2023-04-16T17:40:57.157Z,10.50
2023-04-16T17:43:24.279Z,13.30
2023-04-16T17:45:51.021Z,11.60
2023-04-16T17:48:17.788Z,13.93
2023-04-16T17:50:44.570Z,9.80
2023-04-16T17:53:11.333Z,10.13
2023-04-16T17:55:38.015Z,10.30
2023-04-16T17:58:04.891Z,11.25
2023-04-16T18:00:34.428Z,10.23
2023-04-16T18:03:01.230Z,7.90
2023-04-16T18:05:28.015Z,10.90
2023-04-16T18:07:55.735Z,9.90
2023-04-16T18:10:22.512Z,7.28
2023-04-16T18:12:49.271Z,8.32
2023-04-16T18:15:16.053Z,10.50
2023-04-16T18:17:42.834Z,9.63
2023-04-16T18:20:11.790Z,9.07
2023-04-16T18:25:34.356Z,10.57
2023-04-16T18:28:02.274Z,7.97
2023-04-16T18:30:29.452Z,7.38
2023-04-16T18:33:19.502Z,8.48
2023-04-16T18:35:42.996Z,9.35
2023-04-16T18:38:09.688Z,7.88
2023-04-16T18:40:37.249Z,9.10
2023-04-16T18:43:04.464Z,11.55
2023-04-16T18:48:00.228Z,8.77
2023-04-16T18:50:26.922Z,6.90
2023-04-16T18:52:58.130Z,7.45
2023-04-16T18:55:25.973Z,8.15
2023-04-16T18:57:53.439Z,9.50
2023-04-16T19:00:20.743Z,11.20
2023-04-16T19:02:47.733Z,9.27
2023-04-16T19:05:14.945Z,7.95
2023-04-16T19:07:42.183Z,9.63
2023-04-16T19:10:09.412Z,8.38
2023-04-16T19:12:36.350Z,7.68
2023-04-16T19:15:03.265Z,6.82
2023-04-16T19:17:30.051Z,6.90
2023-04-16T19:19:57.028Z,5.63
2023-04-16T19:22:23.796Z,10.57
2023-04-16T19:24:50.740Z,8.70
2023-04-16T19:27:17.470Z,8.30
2023-04-16T19:29:45.573Z,9.38
2023-04-16T19:32:14.056Z,10.23
2023-04-16T19:34:41.044Z,8.55
2023-04-16T19:37:07.785Z,8.65
2023-04-16T19:39:35.051Z,6.90
2023-04-16T19:42:03.770Z,8.13
2023-04-16T19:44:30.829Z,6.20
2023-04-16T19:46:57.547Z,7.45
2023-04-16T19:49:25.592Z,7.38
2023-04-16T19:51:53.128Z,10.50
2023-04-16T19:54:20.011Z,6.93
2023-04-16T19:56:49.122Z,8.05
2023-04-16T19:59:15.908Z,7.40
2023-04-16T20:01:42.691Z,7.75
2023-04-16T20:04:09.963Z,8.15
2023-04-16T20:06:37.121Z,8.63
2023-04-16T20:09:04.850Z,9.25
2023-04-16T20:11:31.656Z,8.38
2023-04-16T20:14:01.422Z,9.00
2023-04-16T20:16:28.427Z,8.50
2023-04-16T20:18:57.232Z,8.38
2023-04-16T20:21:25.603Z,8.13
2023-04-16T20:23:52.662Z,8.75
2023-04-16T20:26:19.530Z,9.60
2023-04-16T20:28:46.670Z,8.20
2023-04-16T20:31:14.317Z,9.02
2023-04-16T20:34:01.349Z,7.45
2023-04-16T20:36:28.312Z,7.90
2023-04-16T20:38:55.153Z,7.20
2023-04-16T20:41:22.698Z,12.98
2023-04-16T20:43:53.307Z,8.32
2023-04-16T20:46:24.569Z,7.25
2023-04-16T20:48:51.999Z,8.15
2023-04-16T20:51:19.339Z,8.57
2023-04-16T20:53:46.277Z,7.55
2023-04-16T20:56:15.155Z,7.63
2023-04-16T20:58:43.040Z,7.03
2023-04-16T21:01:10.227Z,7.90
2023-04-16T21:03:37.722Z,9.88
2023-04-16T21:06:04.920Z,9.68
2023-04-16T21:08:31.950Z,9.05
2023-04-16T21:10:58.891Z,6.88
2023-04-16T21:13:25.762Z,8.52
2023-04-16T21:15:53.094Z,9.43
2023-04-16T21:18:20.175Z,9.95
2023-04-16T21:20:47.034Z,9.30
2023-04-16T21:23:13.923Z,10.77
2023-04-16T21:25:41.197Z,9.55
2023-04-16T21:28:08.152Z,9.65
2023-04-16T21:30:35.002Z,7.07
2023-04-16T21:33:01.897Z,9.68
2023-04-16T21:35:28.727Z,9.50
2023-04-16T21:37:55.511Z,13.10
2023-04-16T21:40:22.365Z,12.75
2023-04-16T21:42:49.245Z,10.20
2023-04-16T21:45:16.126Z,10.25
2023-04-16T21:47:43.009Z,8.00
2023-04-16T21:50:10.476Z,10.23
2023-04-16T21:52:41.015Z,13.88
2023-04-16T21:55:09.821Z,10.48
2023-04-16T21:57:36.688Z,10.57
2023-04-16T22:00:12.147Z,11.63
2023-04-16T22:02:39.285Z,10.02
2023-04-16T22:05:06.508Z,9.23
2023-04-16T22:07:33.250Z,8.98
2023-04-16T22:10:00.154Z,9.15
2023-04-16T22:12:26.917Z,9.75
2023-04-16T22:15:02.385Z,9.20
2023-04-16T22:17:30.497Z,8.57
2023-04-16T22:20:00.557Z,9.15
2023-04-16T22:22:27.361Z,8.48
2023-04-16T22:24:54.237Z,8.95
2023-04-16T22:27:21.554Z,8.68
2023-04-16T22:29:48.395Z,9.18
2023-04-16T22:32:15.656Z,7.85
2023-04-16T22:34:42.556Z,9.38
2023-04-16T22:37:09.358Z,12.68
2023-04-16T22:39:36.207Z,9.55
2023-04-16T22:42:03.078Z,13.75
2023-04-16T22:44:29.947Z,10.07
2023-04-16T22:46:57.093Z,10.43
2023-04-16T22:49:24.047Z,8.10
2023-04-16T22:51:50.969Z,11.68
2023-04-16T22:54:17.975Z,10.65
2023-04-16T22:56:44.831Z,9.95
2023-04-16T22:59:11.820Z,9.48
2023-04-16T23:01:39.053Z,8.88
2023-04-16T23:04:06.128Z,9.90
2023-04-16T23:06:33.652Z,10.18
2023-04-16T23:09:00.429Z,9.80
2023-04-16T23:11:27.508Z,10.65
2023-04-16T23:13:54.347Z,8.73
2023-04-16T23:16:21.192Z,9.65
2023-04-16T23:18:48.025Z,9.20
2023-04-16T23:21:14.783Z,8.98
2023-04-16T23:23:41.637Z,9.95
2023-04-16T23:26:08.468Z,9.27
2023-04-16T23:28:35.343Z,9.43
2023-04-16T23:31:03.013Z,7.57
2023-04-16T23:33:30.558Z,8.27
2023-04-16T23:35:57.430Z,6.50
2023-04-16T23:38:24.769Z,6.40
2023-04-16T23:40:51.730Z,9.02
2023-04-16T23:43:18.512Z,7.78
2023-04-16T23:45:45.341Z,9.43
2023-04-16T23:48:12.312Z,9.88
2023-04-16T23:50:39.093Z,6.93
2023-04-16T23:53:05.883Z,7.28
2023-04-16T23:55:32.669Z,7.40
2023-04-16T23:57:59.572Z,7.57
